sensor_id;sensor_type;location;lat;lon;timestamp;P1;durP1;ratioP1;P2;durP2;ratioP2
18066;SDS011;9158;51.528;7.192;2023-01-06T00:00:15;6.95;;;6.10;;
18066;SDS011;9158;51.528;7.192;2023-01-06T00:00:46;9.82;;;5.60;;
18066;SDS011;9158;51.528;7.192;2023-01-06T00:01:18;8.23;;;6.22;;
18066;SDS011;9158;51.528;7.192;2023-01-06T00:01:49;7.85;;;6.30;;
18066;SDS011;9158;51.528;7.192;2023-01-06T00:02:20;9.05;;;6.20;;
18066;SDS011;9158;51.528;7.192;2023-01-06T00:02:52;10.82;;;6.57;;
18066;SDS011;9158;51.528;7.192;2023-01-06T00:03:23;9.45;;;6.65;;
18066;SDS011;9158;51.528;7.192;2023-01-06T00:03:54;10.17;;;7.27;;
18066;SDS011;9158;51.528;7.192;2023-01-06T00:04:28;8.60;;;5.70;;
18066;SDS011;9158;51.528;7.192;2023-01-06T00:04:59;7.33;;;5.73;;
18066;SDS011;9158;51.528;7.192;2023-01-06T00:05:30;7.60;;;5.70;;
18066;SDS011;9158;51.528;7.192;2023-01-06T00:06:03;9.25;;;5.43;;
18066;SDS011;9158;51.528;7.192;2023-01-06T00:06:35;11.85;;;6.03;;
18066;SDS011;9158;51.528;7.192;2023-01-06T00:07:07;7.45;;;4.95;;
18066;SDS011;9158;51.528;7.192;2023-01-06T00:07:38;7.82;;;5.70;;
18066;SDS011;9158;51.528;7.192;2023-01-06T00:08:09;7.38;;;5.68;;
18066;SDS011;9158;51.528;7.192;2023-01-06T00:08:42;5.78;;;4.93;;
18066;SDS011;9158;51.528;7.192;2023-01-06T00:09:14;10.52;;;5.88;;
18066;SDS011;9158;51.528;7.192;2023-01-06T00:09:45;5.72;;;4.72;;
18066;SDS011;9158;51.528;7.192;2023-01-06T00:10:17;12.77;;;5.28;;
18066;SDS011;9158;51.528;7.192;2023-01-06T00:10:49;9.23;;;4.80;;
18066;SDS011;9158;51.528;7.192;2023-01-06T00:11:20;9.93;;;5.33;;
18066;SDS011;9158;51.528;7.192;2023-01-06T00:11:52;7.93;;;5.13;;
18066;SDS011;9158;51.528;7.192;2023-01-06T00:12:23;6.78;;;5.07;;
18066;SDS011;9158;51.528;7.192;2023-01-06T00:12:55;6.10;;;4.80;;
18066;SDS011;9158;51.528;7.192;2023-01-06T00:13:27;6.72;;;4.80;;
18066;SDS011;9158;51.528;7.192;2023-01-06T00:13:58;7.80;;;4.57;;
18066;SDS011;9158;51.528;7.192;2023-01-06T00:14:29;7.15;;;4.97;;
18066;SDS011;9158;51.528;7.192;2023-01-06T00:15:01;9.25;;;4.30;;
18066;SDS011;9158;51.528;7.192;2023-01-06T00:15:34;9.05;;;4.07;;
18066;SDS011;9158;51.528;7.192;2023-01-06T00:16:06;6.72;;;4.20;;
18066;SDS011;9158;51.528;7.192;2023-01-06T00:16:40;6.47;;;5.05;;
18066;SDS011;9158;51.528;7.192;2023-01-06T00:17:11;5.78;;;4.70;;
18066;SDS011;9158;51.528;7.192;2023-01-06T00:17:42;5.05;;;3.42;;
18066;SDS011;9158;51.528;7.192;2023-01-06T00:18:14;6.00;;;3.78;;
18066;SDS011;9158;51.528;7.192;2023-01-06T00:18:46;4.75;;;3.40;;
18066;SDS011;9158;51.528;7.192;2023-01-06T00:19:17;7.50;;;3.90;;
18066;SDS011;9158;51.528;7.192;2023-01-06T00:19:48;5.47;;;4.72;;
18066;SDS011;9158;51.528;7.192;2023-01-06T00:20:21;4.13;;;3.10;;
18066;SDS011;9158;51.528;7.192;2023-01-06T00:20:52;8.35;;;3.33;;
18066;SDS011;9158;51.528;7.192;2023-01-06T00:21:23;4.22;;;3.83;;
18066;SDS011;9158;51.528;7.192;2023-01-06T00:21:55;5.35;;;3.47;;
18066;SDS011;9158;51.528;7.192;2023-01-06T00:22:27;4.13;;;2.88;;
18066;SDS011;9158;51.528;7.192;2023-01-06T00:22:58;4.32;;;3.00;;
18066;SDS011;9158;51.528;7.192;2023-01-06T00:23:30;5.13;;;3.65;;
18066;SDS011;9158;51.528;7.192;2023-01-06T00:24:01;7.03;;;4.40;;
18066;SDS011;9158;51.528;7.192;2023-01-06T00:24:34;7.78;;;4.13;;
18066;SDS011;9158;51.528;7.192;2023-01-06T00:25:06;8.57;;;3.95;;
18066;SDS011;9158;51.528;7.192;2023-01-06T00:25:39;4.28;;;3.60;;
18066;SDS011;9158;51.528;7.192;2023-01-06T00:26:18;3.90;;;3.15;;
18066;SDS011;9158;51.528;7.192;2023-01-06T00:26:50;11.13;;;5.70;;
18066;SDS011;9158;51.528;7.192;2023-01-06T00:27:23;5.10;;;3.47;;
18066;SDS011;9158;51.528;7.192;2023-01-06T00:27:55;5.40;;;2.90;;
18066;SDS011;9158;51.528;7.192;2023-01-06T00:28:27;4.85;;;3.78;;
18066;SDS011;9158;51.528;7.192;2023-01-06T00:28:58;9.30;;;4.80;;
18066;SDS011;9158;51.528;7.192;2023-01-06T00:29:29;7.00;;;3.70;;
18066;SDS011;9158;51.528;7.192;2023-01-06T00:30:01;4.55;;;2.20;;
18066;SDS011;9158;51.528;7.192;2023-01-06T00:30:35;6.55;;;2.17;;
18066;SDS011;9158;51.528;7.192;2023-01-06T00:31:07;4.93;;;3.90;;
18066;SDS011;9158;51.528;7.192;2023-01-06T00:31:40;5.65;;;3.78;;
18066;SDS011;9158;51.528;7.192;2023-01-06T00:32:12;7.15;;;2.83;;
18066;SDS011;9158;51.528;7.192;2023-01-06T00:32:43;7.03;;;2.80;;
18066;SDS011;9158;51.528;7.192;2023-01-06T00:33:15;6.93;;;2.53;;
18066;SDS011;9158;51.528;7.192;2023-01-06T00:33:46;4.43;;;3.38;;
18066;SDS011;9158;51.528;7.192;2023-01-06T00:34:17;4.70;;;2.25;;
18066;SDS011;9158;51.528;7.192;2023-01-06T00:34:49;4.60;;;3.40;;
18066;SDS011;9158;51.528;7.192;2023-01-06T00:35:20;4.28;;;2.50;;
18066;SDS011;9158;51.528;7.192;2023-01-06T00:35:51;3.10;;;2.55;;
18066;SDS011;9158;51.528;7.192;2023-01-06T00:36:28;3.97;;;2.97;;
18066;SDS011;9158;51.528;7.192;2023-01-06T00:36:59;5.07;;;2.90;;
18066;SDS011;9158;51.528;7.192;2023-01-06T00:37:31;6.20;;;2.85;;
18066;SDS011;9158;51.528;7.192;2023-01-06T00:38:03;3.63;;;2.65;;
18066;SDS011;9158;51.528;7.192;2023-01-06T00:38:34;4.85;;;2.83;;
18066;SDS011;9158;51.528;7.192;2023-01-06T00:39:06;4.57;;;2.40;;
18066;SDS011;9158;51.528;7.192;2023-01-06T00:39:39;2.78;;;2.15;;
18066;SDS011;9158;51.528;7.192;2023-01-06T00:40:10;2.95;;;2.10;;
18066;SDS011;9158;51.528;7.192;2023-01-06T00:40:41;3.17;;;2.20;;
18066;SDS011;9158;51.528;7.192;2023-01-06T00:41:13;3.70;;;1.85;;
18066;SDS011;9158;51.528;7.192;2023-01-06T00:42:03;3.28;;;2.20;;
18066;SDS011;9158;51.528;7.192;2023-01-06T00:42:35;9.90;;;2.45;;
18066;SDS011;9158;51.528;7.192;2023-01-06T00:43:07;3.75;;;2.17;;
18066;SDS011;9158;51.528;7.192;2023-01-06T00:43:38;3.70;;;2.00;;
18066;SDS011;9158;51.528;7.192;2023-01-06T00:44:09;3.20;;;2.42;;
18066;SDS011;9158;51.528;7.192;2023-01-06T00:44:41;4.05;;;2.50;;
18066;SDS011;9158;51.528;7.192;2023-01-06T00:45:12;3.15;;;2.08;;
18066;SDS011;9158;51.528;7.192;2023-01-06T00:45:44;2.17;;;1.98;;
18066;SDS011;9158;51.528;7.192;2023-01-06T00:46:15;7.43;;;2.40;;
18066;SDS011;9158;51.528;7.192;2023-01-06T00:46:46;3.78;;;1.70;;
18066;SDS011;9158;51.528;7.192;2023-01-06T00:47:18;2.67;;;1.95;;
18066;SDS011;9158;51.528;7.192;2023-01-06T00:47:49;3.00;;;2.10;;
18066;SDS011;9158;51.528;7.192;2023-01-06T00:48:21;5.18;;;2.53;;
18066;SDS011;9158;51.528;7.192;2023-01-06T00:48:52;7.35;;;3.05;;
18066;SDS011;9158;51.528;7.192;2023-01-06T00:49:24;4.00;;;2.30;;
18066;SDS011;9158;51.528;7.192;2023-01-06T00:49:56;7.07;;;2.25;;
18066;SDS011;9158;51.528;7.192;2023-01-06T00:50:27;6.45;;;2.30;;
18066;SDS011;9158;51.528;7.192;2023-01-06T00:50:59;2.58;;;2.03;;
18066;SDS011;9158;51.528;7.192;2023-01-06T00:51:30;4.95;;;1.90;;
18066;SDS011;9158;51.528;7.192;2023-01-06T00:52:01;4.15;;;2.10;;
18066;SDS011;9158;51.528;7.192;2023-01-06T00:52:34;5.95;;;2.17;;
18066;SDS011;9158;51.528;7.192;2023-01-06T00:53:05;2.65;;;1.77;;
18066;SDS011;9158;51.528;7.192;2023-01-06T00:53:36;5.28;;;2.10;;
18066;SDS011;9158;51.528;7.192;2023-01-06T00:54:09;3.85;;;2.60;;
18066;SDS011;9158;51.528;7.192;2023-01-06T00:54:43;4.22;;;2.47;;
18066;SDS011;9158;51.528;7.192;2023-01-06T00:55:15;3.72;;;2.38;;
18066;SDS011;9158;51.528;7.192;2023-01-06T00:55:46;4.30;;;2.08;;
18066;SDS011;9158;51.528;7.192;2023-01-06T00:56:17;6.50;;;2.55;;
18066;SDS011;9158;51.528;7.192;2023-01-06T00:56:48;3.03;;;2.20;;
18066;SDS011;9158;51.528;7.192;2023-01-06T00:57:21;5.22;;;2.35;;
18066;SDS011;9158;51.528;7.192;2023-01-06T00:57:52;3.97;;;2.17;;
18066;SDS011;9158;51.528;7.192;2023-01-06T00:58:27;3.40;;;2.10;;
18066;SDS011;9158;51.528;7.192;2023-01-06T00:59:00;2.80;;;1.95;;
18066;SDS011;9158;51.528;7.192;2023-01-06T00:59:31;1.65;;;1.33;;
18066;SDS011;9158;51.528;7.192;2023-01-06T01:00:06;3.80;;;2.10;;
18066;SDS011;9158;51.528;7.192;2023-01-06T01:00:40;3.38;;;2.00;;
18066;SDS011;9158;51.528;7.192;2023-01-06T01:01:12;2.88;;;1.65;;
18066;SDS011;9158;51.528;7.192;2023-01-06T01:01:43;3.65;;;1.77;;
18066;SDS011;9158;51.528;7.192;2023-01-06T01:02:16;1.60;;;1.35;;
18066;SDS011;9158;51.528;7.192;2023-01-06T01:02:48;1.80;;;1.67;;
18066;SDS011;9158;51.528;7.192;2023-01-06T01:03:19;2.80;;;1.63;;
18066;SDS011;9158;51.528;7.192;2023-01-06T01:03:50;4.38;;;2.05;;
18066;SDS011;9158;51.528;7.192;2023-01-06T01:04:24;5.60;;;1.90;;
18066;SDS011;9158;51.528;7.192;2023-01-06T01:04:57;5.20;;;2.55;;
18066;SDS011;9158;51.528;7.192;2023-01-06T01:05:28;6.15;;;3.45;;
18066;SDS011;9158;51.528;7.192;2023-01-06T01:05:59;2.65;;;1.65;;
18066;SDS011;9158;51.528;7.192;2023-01-06T01:06:32;3.17;;;2.03;;
18066;SDS011;9158;51.528;7.192;2023-01-06T01:07:03;1.90;;;1.45;;
18066;SDS011;9158;51.528;7.192;2023-01-06T01:07:35;3.05;;;1.40;;
18066;SDS011;9158;51.528;7.192;2023-01-06T01:08:06;6.07;;;2.40;;
18066;SDS011;9158;51.528;7.192;2023-01-06T01:08:37;1.73;;;1.63;;
18066;SDS011;9158;51.528;7.192;2023-01-06T01:09:10;2.53;;;1.70;;
18066;SDS011;9158;51.528;7.192;2023-01-06T01:09:45;1.60;;;1.50;;
18066;SDS011;9158;51.528;7.192;2023-01-06T01:10:17;9.30;;;1.92;;
18066;SDS011;9158;51.528;7.192;2023-01-06T01:10:48;2.15;;;1.23;;
18066;SDS011;9158;51.528;7.192;2023-01-06T01:11:19;3.08;;;1.70;;
18066;SDS011;9158;51.528;7.192;2023-01-06T01:12:05;8.55;;;2.10;;
18066;SDS011;9158;51.528;7.192;2023-01-06T01:12:39;2.63;;;1.38;;
18066;SDS011;9158;51.528;7.192;2023-01-06T01:13:11;2.72;;;1.25;;
18066;SDS011;9158;51.528;7.192;2023-01-06T01:13:42;1.58;;;1.30;;
18066;SDS011;9158;51.528;7.192;2023-01-06T01:14:14;2.20;;;1.15;;
18066;SDS011;9158;51.528;7.192;2023-01-06T01:14:48;2.40;;;1.60;;
18066;SDS011;9158;51.528;7.192;2023-01-06T01:15:20;2.55;;;1.50;;
18066;SDS011;9158;51.528;7.192;2023-01-06T01:15:52;1.58;;;1.13;;
18066;SDS011;9158;51.528;7.192;2023-01-06T01:16:23;6.35;;;1.98;;
18066;SDS011;9158;51.528;7.192;2023-01-06T01:16:54;5.82;;;2.60;;
18066;SDS011;9158;51.528;7.192;2023-01-06T01:17:27;2.53;;;2.05;;
18066;SDS011;9158;51.528;7.192;2023-01-06T01:18:00;3.67;;;2.20;;
18066;SDS011;9158;51.528;7.192;2023-01-06T01:18:32;4.32;;;1.67;;
18066;SDS011;9158;51.528;7.192;2023-01-06T01:19:04;3.45;;;1.25;;
18066;SDS011;9158;51.528;7.192;2023-01-06T01:19:35;1.70;;;1.60;;
18066;SDS011;9158;51.528;7.192;2023-01-06T01:20:08;2.17;;;1.40;;
18066;SDS011;9158;51.528;7.192;2023-01-06T01:20:39;5.15;;;1.75;;
18066;SDS011;9158;51.528;7.192;2023-01-06T01:21:10;1.48;;;1.17;;
18066;SDS011;9158;51.528;7.192;2023-01-06T01:21:42;1.08;;;0.95;;
18066;SDS011;9158;51.528;7.192;2023-01-06T01:22:13;2.53;;;1.40;;
18066;SDS011;9158;51.528;7.192;2023-01-06T01:22:45;4.20;;;1.33;;
18066;SDS011;9158;51.528;7.192;2023-01-06T01:23:16;2.58;;;1.52;;
18066;SDS011;9158;51.528;7.192;2023-01-06T01:23:48;2.10;;;1.23;;
18066;SDS011;9158;51.528;7.192;2023-01-06T01:24:20;2.58;;;1.15;;
18066;SDS011;9158;51.528;7.192;2023-01-06T01:24:54;2.58;;;1.40;;
18066;SDS011;9158;51.528;7.192;2023-01-06T01:25:26;6.00;;;1.20;;
18066;SDS011;9158;51.528;7.192;2023-01-06T01:25:57;6.22;;;1.35;;
18066;SDS011;9158;51.528;7.192;2023-01-06T01:26:28;2.25;;;1.70;;
18066;SDS011;9158;51.528;7.192;2023-01-06T01:27:00;1.63;;;1.42;;
18066;SDS011;9158;51.528;7.192;2023-01-06T01:27:31;1.77;;;0.98;;
18066;SDS011;9158;51.528;7.192;2023-01-06T01:28:03;6.63;;;1.35;;
18066;SDS011;9158;51.528;7.192;2023-01-06T01:28:34;5.95;;;1.25;;
18066;SDS011;9158;51.528;7.192;2023-01-06T01:29:05;3.05;;;1.20;;
18066;SDS011;9158;51.528;7.192;2023-01-06T01:29:40;2.22;;;1.23;;
18066;SDS011;9158;51.528;7.192;2023-01-06T01:30:11;2.28;;;1.30;;
18066;SDS011;9158;51.528;7.192;2023-01-06T01:30:43;12.15;;;1.30;;
18066;SDS011;9158;51.528;7.192;2023-01-06T01:31:14;2.40;;;1.48;;
18066;SDS011;9158;51.528;7.192;2023-01-06T01:31:46;2.22;;;1.27;;
18066;SDS011;9158;51.528;7.192;2023-01-06T01:32:18;3.33;;;1.30;;
18066;SDS011;9158;51.528;7.192;2023-01-06T01:32:49;1.40;;;1.23;;
18066;SDS011;9158;51.528;7.192;2023-01-06T01:33:20;3.20;;;2.90;;
18066;SDS011;9158;51.528;7.192;2023-01-06T01:33:52;1.27;;;1.17;;
18066;SDS011;9158;51.528;7.192;2023-01-06T01:34:24;4.32;;;1.48;;
18066;SDS011;9158;51.528;7.192;2023-01-06T01:34:55;2.03;;;1.30;;
18066;SDS011;9158;51.528;7.192;2023-01-06T01:35:27;2.15;;;1.10;;
18066;SDS011;9158;51.528;7.192;2023-01-06T01:36:03;2.50;;;1.13;;
18066;SDS011;9158;51.528;7.192;2023-01-06T01:36:35;3.45;;;1.20;;
18066;SDS011;9158;51.528;7.192;2023-01-06T01:37:06;3.80;;;1.10;;
18066;SDS011;9158;51.528;7.192;2023-01-06T01:37:38;2.97;;;1.08;;
18066;SDS011;9158;51.528;7.192;2023-01-06T01:38:09;4.45;;;1.15;;
18066;SDS011;9158;51.528;7.192;2023-01-06T01:38:40;2.17;;;1.30;;
18066;SDS011;9158;51.528;7.192;2023-01-06T01:39:11;2.28;;;1.00;;
18066;SDS011;9158;51.528;7.192;2023-01-06T01:39:45;6.45;;;1.85;;
18066;SDS011;9158;51.528;7.192;2023-01-06T01:40:17;2.25;;;1.23;;
18066;SDS011;9158;51.528;7.192;2023-01-06T01:40:49;2.33;;;1.00;;
18066;SDS011;9158;51.528;7.192;2023-01-06T01:41:21;2.88;;;1.10;;
18066;SDS011;9158;51.528;7.192;2023-01-06T01:41:54;3.15;;;1.00;;
18066;SDS011;9158;51.528;7.192;2023-01-06T01:42:26;3.17;;;1.10;;
18066;SDS011;9158;51.528;7.192;2023-01-06T01:42:58;2.75;;;1.25;;
18066;SDS011;9158;51.528;7.192;2023-01-06T01:43:41;2.58;;;1.02;;
18066;SDS011;9158;51.528;7.192;2023-01-06T01:45:25;2.42;;;1.00;;
18066;SDS011;9158;51.528;7.192;2023-01-06T01:45:57;1.95;;;0.80;;
18066;SDS011;9158;51.528;7.192;2023-01-06T01:46:30;1.13;;;1.02;;
18066;SDS011;9158;51.528;7.192;2023-01-06T01:47:04;3.47;;;1.00;;
18066;SDS011;9158;51.528;7.192;2023-01-06T01:47:40;1.77;;;1.10;;
18066;SDS011;9158;51.528;7.192;2023-01-06T01:48:16;1.08;;;0.80;;
18066;SDS011;9158;51.528;7.192;2023-01-06T01:48:53;2.65;;;1.23;;
18066;SDS011;9158;51.528;7.192;2023-01-06T01:49:27;1.85;;;1.10;;
18066;SDS011;9158;51.528;7.192;2023-01-06T01:50:04;3.15;;;1.10;;
18066;SDS011;9158;51.528;7.192;2023-01-06T01:50:40;3.63;;;1.40;;
18066;SDS011;9158;51.528;7.192;2023-01-06T01:51:16;5.05;;;1.50;;
18066;SDS011;9158;51.528;7.192;2023-01-06T01:51:54;3.25;;;1.00;;
18066;SDS011;9158;51.528;7.192;2023-01-06T01:52:26;1.85;;;0.90;;
18066;SDS011;9158;51.528;7.192;2023-01-06T01:53:01;1.60;;;0.90;;
18066;SDS011;9158;51.528;7.192;2023-01-06T01:53:37;1.05;;;0.90;;
18066;SDS011;9158;51.528;7.192;2023-01-06T01:54:12;1.48;;;0.80;;
18066;SDS011;9158;51.528;7.192;2023-01-06T01:54:47;0.93;;;0.85;;
18066;SDS011;9158;51.528;7.192;2023-01-06T01:55:20;1.27;;;1.05;;
18066;SDS011;9158;51.528;7.192;2023-01-06T01:55:54;2.17;;;0.88;;
18066;SDS011;9158;51.528;7.192;2023-01-06T01:56:28;2.28;;;1.08;;
18066;SDS011;9158;51.528;7.192;2023-01-06T01:57:04;3.90;;;0.95;;
18066;SDS011;9158;51.528;7.192;2023-01-06T01:57:40;0.95;;;0.90;;
18066;SDS011;9158;51.528;7.192;2023-01-06T01:58:18;3.70;;;1.10;;
18066;SDS011;9158;51.528;7.192;2023-01-06T01:58:53;1.60;;;0.80;;
18066;SDS011;9158;51.528;7.192;2023-01-06T01:59:28;1.67;;;1.20;;
18066;SDS011;9158;51.528;7.192;2023-01-06T02:00:02;1.95;;;0.90;;
18066;SDS011;9158;51.528;7.192;2023-01-06T02:00:43;1.20;;;0.90;;
18066;SDS011;9158;51.528;7.192;2023-01-06T02:01:14;1.65;;;0.73;;
18066;SDS011;9158;51.528;7.192;2023-01-06T02:01:45;1.55;;;0.80;;
18066;SDS011;9158;51.528;7.192;2023-01-06T02:02:19;6.53;;;1.17;;
18066;SDS011;9158;51.528;7.192;2023-01-06T02:02:52;0.95;;;0.75;;
18066;SDS011;9158;51.528;7.192;2023-01-06T02:03:24;4.75;;;1.10;;
18066;SDS011;9158;51.528;7.192;2023-01-06T02:03:57;1.08;;;1.08;;
18066;SDS011;9158;51.528;7.192;2023-01-06T02:04:29;4.30;;;1.10;;
18066;SDS011;9158;51.528;7.192;2023-01-06T02:05:04;4.03;;;1.20;;
18066;SDS011;9158;51.528;7.192;2023-01-06T02:05:38;1.80;;;0.75;;
18066;SDS011;9158;51.528;7.192;2023-01-06T02:06:14;1.42;;;1.08;;
18066;SDS011;9158;51.528;7.192;2023-01-06T02:06:47;0.98;;;0.85;;
18066;SDS011;9158;51.528;7.192;2023-01-06T02:07:20;1.40;;;1.30;;
18066;SDS011;9158;51.528;7.192;2023-01-06T02:07:54;1.50;;;1.00;;
18066;SDS011;9158;51.528;7.192;2023-01-06T02:08:27;5.60;;;1.20;;
18066;SDS011;9158;51.528;7.192;2023-01-06T02:09:05;2.00;;;1.08;;
18066;SDS011;9158;51.528;7.192;2023-01-06T02:09:41;3.10;;;0.90;;
18066;SDS011;9158;51.528;7.192;2023-01-06T02:10:19;1.60;;;0.80;;
18066;SDS011;9158;51.528;7.192;2023-01-06T02:10:54;1.58;;;1.27;;
18066;SDS011;9158;51.528;7.192;2023-01-06T02:11:25;0.82;;;0.60;;
18066;SDS011;9158;51.528;7.192;2023-01-06T02:11:58;1.75;;;1.23;;
18066;SDS011;9158;51.528;7.192;2023-01-06T02:12:30;2.08;;;0.90;;
18066;SDS011;9158;51.528;7.192;2023-01-06T02:13:02;2.00;;;0.95;;
18066;SDS011;9158;51.528;7.192;2023-01-06T02:13:34;1.67;;;0.90;;
18066;SDS011;9158;51.528;7.192;2023-01-06T02:14:09;4.43;;;1.20;;
18066;SDS011;9158;51.528;7.192;2023-01-06T02:14:41;3.45;;;1.38;;
18066;SDS011;9158;51.528;7.192;2023-01-06T02:15:14;2.33;;;0.90;;
18066;SDS011;9158;51.528;7.192;2023-01-06T02:15:46;2.05;;;1.00;;
18066;SDS011;9158;51.528;7.192;2023-01-06T02:16:19;3.25;;;1.02;;
18066;SDS011;9158;51.528;7.192;2023-01-06T02:17:04;1.77;;;0.80;;
18066;SDS011;9158;51.528;7.192;2023-01-06T02:18:10;1.88;;;0.93;;
18066;SDS011;9158;51.528;7.192;2023-01-06T02:18:57;0.60;;;0.60;;
18066;SDS011;9158;51.528;7.192;2023-01-06T02:19:41;0.73;;;0.65;;
18066;SDS011;9158;51.528;7.192;2023-01-06T02:20:57;1.35;;;1.05;;
18066;SDS011;9158;51.528;7.192;2023-01-06T02:21:40;1.60;;;1.35;;
18066;SDS011;9158;51.528;7.192;2023-01-06T02:22:33;1.30;;;0.80;;
18066;SDS011;9158;51.528;7.192;2023-01-06T02:25:07;5.63;;;1.23;;
18066;SDS011;9158;51.528;7.192;2023-01-06T02:26:02;0.80;;;0.80;;
18066;SDS011;9158;51.528;7.192;2023-01-06T02:28:06;3.65;;;1.10;;
18066;SDS011;9158;51.528;7.192;2023-01-06T02:30:23;2.97;;;0.98;;
18066;SDS011;9158;51.528;7.192;2023-01-06T02:31:21;1.40;;;0.95;;
18066;SDS011;9158;51.528;7.192;2023-01-06T02:32:13;0.88;;;0.80;;
18066;SDS011;9158;51.528;7.192;2023-01-06T02:32:52;2.72;;;1.00;;
18066;SDS011;9158;51.528;7.192;2023-01-06T02:33:35;1.20;;;1.08;;
18066;SDS011;9158;51.528;7.192;2023-01-06T02:34:12;2.08;;;1.05;;
18066;SDS011;9158;51.528;7.192;2023-01-06T02:34:50;0.88;;;0.75;;
18066;SDS011;9158;51.528;7.192;2023-01-06T02:35:38;4.00;;;0.85;;
18066;SDS011;9158;51.528;7.192;2023-01-06T02:36:19;1.85;;;0.70;;
18066;SDS011;9158;51.528;7.192;2023-01-06T02:37:01;1.45;;;1.27;;
18066;SDS011;9158;51.528;7.192;2023-01-06T02:37:41;1.30;;;1.00;;
18066;SDS011;9158;51.528;7.192;2023-01-06T02:38:24;1.23;;;1.13;;
18066;SDS011;9158;51.528;7.192;2023-01-06T02:39:08;1.85;;;1.20;;
18066;SDS011;9158;51.528;7.192;2023-01-06T02:39:54;6.18;;;2.35;;
18066;SDS011;9158;51.528;7.192;2023-01-06T02:40:45;2.05;;;1.10;;
18066;SDS011;9158;51.528;7.192;2023-01-06T02:41:30;1.52;;;0.80;;
18066;SDS011;9158;51.528;7.192;2023-01-06T02:42:12;1.05;;;0.98;;
18066;SDS011;9158;51.528;7.192;2023-01-06T02:42:53;3.05;;;0.90;;
18066;SDS011;9158;51.528;7.192;2023-01-06T02:43:38;4.03;;;0.90;;
18066;SDS011;9158;51.528;7.192;2023-01-06T02:44:17;3.60;;;1.38;;
18066;SDS011;9158;51.528;7.192;2023-01-06T02:45:00;1.83;;;1.00;;
18066;SDS011;9158;51.528;7.192;2023-01-06T02:45:41;1.95;;;0.95;;
18066;SDS011;9158;51.528;7.192;2023-01-06T02:46:23;3.10;;;0.80;;
18066;SDS011;9158;51.528;7.192;2023-01-06T02:47:09;2.72;;;1.20;;
18066;SDS011;9158;51.528;7.192;2023-01-06T02:47:46;1.50;;;1.25;;
18066;SDS011;9158;51.528;7.192;2023-01-06T02:48:33;1.42;;;0.85;;
18066;SDS011;9158;51.528;7.192;2023-01-06T02:49:13;1.40;;;0.93;;
18066;SDS011;9158;51.528;7.192;2023-01-06T02:49:54;4.45;;;0.95;;
18066;SDS011;9158;51.528;7.192;2023-01-06T02:50:32;2.35;;;0.80;;
18066;SDS011;9158;51.528;7.192;2023-01-06T02:51:11;2.10;;;0.93;;
18066;SDS011;9158;51.528;7.192;2023-01-06T02:51:47;2.28;;;1.10;;
18066;SDS011;9158;51.528;7.192;2023-01-06T02:52:22;2.05;;;1.00;;
18066;SDS011;9158;51.528;7.192;2023-01-06T02:53:05;1.17;;;1.00;;
18066;SDS011;9158;51.528;7.192;2023-01-06T02:53:42;1.50;;;0.80;;
18066;SDS011;9158;51.528;7.192;2023-01-06T02:54:24;0.90;;;0.70;;
18066;SDS011;9158;51.528;7.192;2023-01-06T02:55:03;0.90;;;0.90;;
18066;SDS011;9158;51.528;7.192;2023-01-06T02:55:38;2.67;;;1.08;;
18066;SDS011;9158;51.528;7.192;2023-01-06T02:56:14;3.35;;;1.10;;
18066;SDS011;9158;51.528;7.192;2023-01-06T02:56:49;0.93;;;0.88;;
18066;SDS011;9158;51.528;7.192;2023-01-06T02:57:31;3.75;;;1.40;;
18066;SDS011;9158;51.528;7.192;2023-01-06T02:58:10;1.60;;;1.30;;
18066;SDS011;9158;51.528;7.192;2023-01-06T02:58:47;1.65;;;1.42;;
18066;SDS011;9158;51.528;7.192;2023-01-06T02:59:24;1.73;;;1.00;;
18066;SDS011;9158;51.528;7.192;2023-01-06T03:00:04;2.25;;;1.17;;
18066;SDS011;9158;51.528;7.192;2023-01-06T03:00:40;2.80;;;1.08;;
18066;SDS011;9158;51.528;7.192;2023-01-06T03:01:15;2.80;;;1.48;;
18066;SDS011;9158;51.528;7.192;2023-01-06T03:01:52;1.35;;;1.25;;
18066;SDS011;9158;51.528;7.192;2023-01-06T03:02:25;3.35;;;1.35;;
18066;SDS011;9158;51.528;7.192;2023-01-06T03:03:01;1.20;;;1.10;;
18066;SDS011;9158;51.528;7.192;2023-01-06T03:03:38;4.45;;;1.40;;
18066;SDS011;9158;51.528;7.192;2023-01-06T03:04:13;3.50;;;0.90;;
18066;SDS011;9158;51.528;7.192;2023-01-06T03:04:49;1.55;;;1.27;;
18066;SDS011;9158;51.528;7.192;2023-01-06T03:05:23;1.67;;;1.05;;
18066;SDS011;9158;51.528;7.192;2023-01-06T03:05:58;2.83;;;1.20;;
18066;SDS011;9158;51.528;7.192;2023-01-06T03:06:36;2.47;;;0.88;;
18066;SDS011;9158;51.528;7.192;2023-01-06T03:07:14;2.45;;;1.10;;
18066;SDS011;9158;51.528;7.192;2023-01-06T03:07:50;1.92;;;1.10;;
18066;SDS011;9158;51.528;7.192;2023-01-06T03:08:24;3.63;;;1.38;;
18066;SDS011;9158;51.528;7.192;2023-01-06T03:08:58;0.88;;;0.88;;
18066;SDS011;9158;51.528;7.192;2023-01-06T03:09:32;3.38;;;1.30;;
18066;SDS011;9158;51.528;7.192;2023-01-06T03:10:06;1.27;;;0.90;;
18066;SDS011;9158;51.528;7.192;2023-01-06T03:10:39;2.15;;;1.20;;
18066;SDS011;9158;51.528;7.192;2023-01-06T03:11:13;1.55;;;1.17;;
18066;SDS011;9158;51.528;7.192;2023-01-06T03:11:45;1.60;;;1.30;;
18066;SDS011;9158;51.528;7.192;2023-01-06T03:12:22;2.33;;;1.20;;
18066;SDS011;9158;51.528;7.192;2023-01-06T03:12:59;1.40;;;1.20;;
18066;SDS011;9158;51.528;7.192;2023-01-06T03:13:37;1.52;;;0.90;;
18066;SDS011;9158;51.528;7.192;2023-01-06T03:14:16;1.38;;;0.85;;
18066;SDS011;9158;51.528;7.192;2023-01-06T03:14:53;1.52;;;1.20;;
18066;SDS011;9158;51.528;7.192;2023-01-06T03:15:26;2.90;;;1.00;;
18066;SDS011;9158;51.528;7.192;2023-01-06T03:15:57;1.10;;;0.95;;
18066;SDS011;9158;51.528;7.192;2023-01-06T03:16:29;6.07;;;1.40;;
18066;SDS011;9158;51.528;7.192;2023-01-06T03:17:01;1.03;;;0.90;;
18066;SDS011;9158;51.528;7.192;2023-01-06T03:17:35;1.98;;;0.88;;
18066;SDS011;9158;51.528;7.192;2023-01-06T03:18:07;1.77;;;1.20;;
18066;SDS011;9158;51.528;7.192;2023-01-06T03:18:39;6.47;;;1.45;;
18066;SDS011;9158;51.528;7.192;2023-01-06T03:19:11;3.30;;;0.90;;
18066;SDS011;9158;51.528;7.192;2023-01-06T03:19:44;3.88;;;1.05;;
18066;SDS011;9158;51.528;7.192;2023-01-06T03:20:17;1.90;;;1.40;;
18066;SDS011;9158;51.528;7.192;2023-01-06T03:20:50;3.08;;;1.08;;
18066;SDS011;9158;51.528;7.192;2023-01-06T03:21:24;4.05;;;1.35;;
18066;SDS011;9158;51.528;7.192;2023-01-06T03:21:59;5.43;;;1.13;;
18066;SDS011;9158;51.528;7.192;2023-01-06T03:22:32;1.27;;;0.90;;
18066;SDS011;9158;51.528;7.192;2023-01-06T03:23:05;1.10;;;1.00;;
18066;SDS011;9158;51.528;7.192;2023-01-06T03:23:38;1.30;;;1.15;;
18066;SDS011;9158;51.528;7.192;2023-01-06T03:24:11;1.77;;;1.27;;
18066;SDS011;9158;51.528;7.192;2023-01-06T03:24:43;1.45;;;1.35;;
18066;SDS011;9158;51.528;7.192;2023-01-06T03:25:16;2.40;;;1.30;;
18066;SDS011;9158;51.528;7.192;2023-01-06T03:25:48;2.33;;;1.17;;
18066;SDS011;9158;51.528;7.192;2023-01-06T03:26:19;1.23;;;0.90;;
18066;SDS011;9158;51.528;7.192;2023-01-06T03:26:51;1.33;;;1.05;;
18066;SDS011;9158;51.528;7.192;2023-01-06T03:27:24;1.58;;;0.77;;
18066;SDS011;9158;51.528;7.192;2023-01-06T03:27:56;3.95;;;0.80;;
18066;SDS011;9158;51.528;7.192;2023-01-06T03:28:28;1.85;;;1.00;;
18066;SDS011;9158;51.528;7.192;2023-01-06T03:28:59;1.45;;;0.70;;
18066;SDS011;9158;51.528;7.192;2023-01-06T03:29:31;1.85;;;1.00;;
18066;SDS011;9158;51.528;7.192;2023-01-06T03:30:06;2.08;;;1.05;;
18066;SDS011;9158;51.528;7.192;2023-01-06T03:30:42;3.15;;;0.90;;
18066;SDS011;9158;51.528;7.192;2023-01-06T03:31:20;1.73;;;1.25;;
18066;SDS011;9158;51.528;7.192;2023-01-06T03:31:59;2.65;;;1.27;;
18066;SDS011;9158;51.528;7.192;2023-01-06T03:32:37;4.65;;;1.27;;
18066;SDS011;9158;51.528;7.192;2023-01-06T03:33:14;3.30;;;1.38;;
18066;SDS011;9158;51.528;7.192;2023-01-06T03:33:53;6.28;;;1.80;;
18066;SDS011;9158;51.528;7.192;2023-01-06T03:34:41;3.35;;;1.85;;
18066;SDS011;9158;51.528;7.192;2023-01-06T03:35:24;3.55;;;1.10;;
18066;SDS011;9158;51.528;7.192;2023-01-06T03:36:10;5.03;;;1.80;;
18066;SDS011;9158;51.528;7.192;2023-01-06T03:36:50;2.28;;;1.10;;
18066;SDS011;9158;51.528;7.192;2023-01-06T03:37:30;3.60;;;1.20;;